createdAt,value
2018-02-03T00:00:29.301Z,6.70
2018-02-03T00:01:29.277Z,6.80
2018-02-03T00:02:29.263Z,6.70
2018-02-03T00:03:29.243Z,6.40
2018-02-03T00:04:29.242Z,6.80
2018-02-03T00:05:29.200Z,6.10
2018-02-03T00:06:29.183Z,6.80
2018-02-03T00:07:29.171Z,6.90
2018-02-03T00:08:29.153Z,6.30
2018-02-03T00:09:29.137Z,6.60
2018-02-03T00:10:29.135Z,6.60
2018-02-03T00:11:29.095Z,6.70
2018-02-03T00:12:29.075Z,6.40
2018-02-03T00:13:29.053Z,6.80
2018-02-03T00:14:29.036Z,6.80
2018-02-03T00:15:29.033Z,6.80
2018-02-03T00:16:29.044Z,6.40
2018-02-03T00:17:28.998Z,6.60
2018-02-03T00:18:28.983Z,6.70
2018-02-03T00:19:28.953Z,6.60
2018-02-03T00:20:28.928Z,6.40
2018-02-03T00:21:28.927Z,6.80
2018-02-03T00:22:28.894Z,6.60
2018-02-03T00:23:28.875Z,6.80
2018-02-03T00:24:28.858Z,6.80
2018-02-03T00:25:28.834Z,6.30
2018-02-03T00:26:28.829Z,7.10
2018-02-03T00:27:28.826Z,6.60
2018-02-03T00:28:28.783Z,7.10
2018-02-03T00:29:28.781Z,7.30
2018-02-03T00:30:28.744Z,6.70
2018-02-03T00:31:28.726Z,6.90
2018-02-03T00:32:28.706Z,7.20
2018-02-03T00:33:28.690Z,6.80
2018-02-03T00:34:28.699Z,6.80
2018-02-03T00:35:28.652Z,7.10
2018-02-03T00:36:28.631Z,6.90
2018-02-03T00:37:28.634Z,6.70
2018-02-03T00:38:28.604Z,7.20
2018-02-03T00:39:28.579Z,7.20
2018-02-03T00:40:28.558Z,7.20
2018-02-03T00:41:28.547Z,7.70
2018-02-03T00:42:28.535Z,6.70
2018-02-03T00:43:28.505Z,6.80
2018-02-03T00:44:28.489Z,7.50
2018-02-03T00:45:28.483Z,7.50
2018-02-03T00:46:28.449Z,7.00
2018-02-03T00:47:28.431Z,6.90
2018-02-03T00:48:28.416Z,7.40
2018-02-03T00:49:28.400Z,7.50
2018-02-03T00:50:28.381Z,7.00
2018-02-03T00:51:28.377Z,7.40
2018-02-03T00:52:28.342Z,7.20
2018-02-03T00:53:28.320Z,7.00
2018-02-03T00:54:28.311Z,7.40
2018-02-03T00:55:28.281Z,7.40
2018-02-03T00:56:28.284Z,7.20
2018-02-03T00:57:28.251Z,7.60
2018-02-03T00:58:28.234Z,7.10
2018-02-03T00:59:28.212Z,7.50
2018-02-03T01:00:28.211Z,7.40
2018-02-03T01:01:28.192Z,7.00
2018-02-03T01:02:28.159Z,7.40
2018-02-03T01:03:28.150Z,7.30
2018-02-03T01:04:28.138Z,7.40
2018-02-03T01:05:28.102Z,7.20
2018-02-03T01:06:28.085Z,7.50
2018-02-03T01:07:28.084Z,7.10
2018-02-03T01:08:28.054Z,7.50
2018-02-03T01:09:28.027Z,7.80
2018-02-03T01:10:28.014Z,7.50
2018-02-03T01:11:27.996Z,7.10
2018-02-03T01:12:27.990Z,7.30
2018-02-03T01:13:27.952Z,7.40
2018-02-03T01:14:27.943Z,7.40
2018-02-03T01:15:27.930Z,7.70
2018-02-03T01:16:27.905Z,7.10
2018-02-03T01:17:27.883Z,7.20
2018-02-03T01:18:27.881Z,6.90
2018-02-03T01:19:27.843Z,7.50
2018-02-03T01:20:27.825Z,7.10
2018-02-03T01:21:27.817Z,7.20
2018-02-03T01:22:27.794Z,7.60
2018-02-03T01:23:27.788Z,7.50
2018-02-03T01:24:27.753Z,7.50
2018-02-03T01:25:27.736Z,6.80
2018-02-03T01:26:27.726Z,7.10
2018-02-03T01:27:27.702Z,7.70
2018-02-03T01:28:27.680Z,7.10
2018-02-03T01:29:27.678Z,7.40
2018-02-03T01:30:27.652Z,7.40
2018-02-03T01:31:27.628Z,7.40
2018-02-03T01:32:27.613Z,7.40
2018-02-03T01:33:27.593Z,7.30
2018-02-03T01:34:27.587Z,7.20
2018-02-03T01:35:27.556Z,7.00
2018-02-03T01:36:27.530Z,7.00
2018-02-03T01:37:27.521Z,7.30
2018-02-03T01:38:27.498Z,7.40
2018-02-03T01:39:27.497Z,7.30
2018-02-03T01:40:27.459Z,7.80
2018-02-03T01:41:27.444Z,7.30
2018-02-03T01:42:27.422Z,7.40
2018-02-03T01:43:27.406Z,7.70
2018-02-03T01:44:27.406Z,7.40
2018-02-03T01:45:27.368Z,7.60
2018-02-03T01:46:27.348Z,7.40
2018-02-03T01:47:27.334Z,7.50
2018-02-03T01:48:27.318Z,7.20
2018-02-03T01:49:27.332Z,7.50
2018-02-03T01:50:27.276Z,7.20
2018-02-03T01:51:27.273Z,7.50
2018-02-03T01:52:27.238Z,8.10
2018-02-03T01:53:27.222Z,7.40
2018-02-03T01:54:27.210Z,7.50
2018-02-03T01:55:27.183Z,7.50
2018-02-03T01:56:27.240Z,7.70
2018-02-03T01:57:27.151Z,7.80
2018-02-03T01:58:27.130Z,7.80
2018-02-03T01:59:27.107Z,7.70
2018-02-03T02:00:27.095Z,8.00
2018-02-03T02:01:27.071Z,7.50
2018-02-03T02:02:27.075Z,7.80
2018-02-03T02:03:27.039Z,7.60
2018-02-03T02:04:27.021Z,7.50
2018-02-03T02:05:26.999Z,7.90
2018-02-03T02:06:26.979Z,8.10
2018-02-03T02:07:26.980Z,7.80
2018-02-03T02:08:26.944Z,7.80
2018-02-03T02:09:26.925Z,8.00
2018-02-03T02:10:26.908Z,7.50
2018-02-03T02:11:26.891Z,7.40
2018-02-03T02:12:26.870Z,6.90
2018-02-03T02:13:26.870Z,7.60
2018-02-03T02:14:26.836Z,7.40
2018-02-03T02:15:26.817Z,7.60
2018-02-03T02:16:26.799Z,7.90
2018-02-03T02:17:26.774Z,7.60
2018-02-03T02:18:26.774Z,7.60
2018-02-03T02:19:26.743Z,7.30
2018-02-03T02:20:26.720Z,7.60
2018-02-03T02:21:26.712Z,7.30
2018-02-03T02:22:26.706Z,7.10
2018-02-03T02:23:26.683Z,7.50
2018-02-03T02:24:26.660Z,7.40
2018-02-03T02:25:26.632Z,7.90
2018-02-03T02:26:26.617Z,7.60
2018-02-03T02:27:26.593Z,6.80
2018-02-03T02:28:26.590Z,7.40
2018-02-03T02:29:26.573Z,7.20
2018-02-03T02:30:26.536Z,7.20
2018-02-03T02:31:26.522Z,7.10
2018-02-03T02:32:26.497Z,7.30
2018-02-03T02:33:26.484Z,7.60
2018-02-03T02:34:26.477Z,7.40
2018-02-03T02:35:26.445Z,7.20
2018-02-03T02:36:26.430Z,6.80
2018-02-03T02:37:26.410Z,7.50
2018-02-03T02:38:26.394Z,7.10
2018-02-03T02:39:26.390Z,6.90
2018-02-03T02:40:26.367Z,6.70
2018-02-03T02:41:26.335Z,6.90
2018-02-03T02:42:26.318Z,7.40
2018-02-03T02:43:26.296Z,7.10
2018-02-03T02:44:26.280Z,6.70
2018-02-03T02:45:26.261Z,6.70
2018-02-03T02:46:26.255Z,6.90
2018-02-03T02:47:26.221Z,7.20
2018-02-03T02:48:26.206Z,6.70
2018-02-03T02:49:26.186Z,7.40
2018-02-03T02:50:26.167Z,7.30
2018-02-03T02:51:26.167Z,7.10
2018-02-03T02:52:26.126Z,7.10
2018-02-03T02:53:26.111Z,7.10
2018-02-03T02:54:26.094Z,7.40
2018-02-03T02:55:26.072Z,7.20
2018-02-03T02:56:26.054Z,7.10
2018-02-03T02:57:26.054Z,6.90
2018-02-03T02:58:26.013Z,7.30
2018-02-03T02:59:26.002Z,7.00
2018-02-03T03:00:25.980Z,6.70
2018-02-03T03:01:25.957Z,6.90
2018-02-03T03:02:25.942Z,6.80
2018-02-03T03:03:25.944Z,7.40
2018-02-03T03:04:25.907Z,6.90
2018-02-03T03:05:25.886Z,7.30
2018-02-03T03:06:25.867Z,7.30
2018-02-03T03:07:25.851Z,7.20
2018-02-03T03:08:25.877Z,7.10
2018-02-03T03:09:25.812Z,7.20
2018-02-03T03:10:25.787Z,7.00
2018-02-03T03:11:25.777Z,7.50
2018-02-03T03:12:25.761Z,7.00
2018-02-03T03:13:25.738Z,7.20
2018-02-03T03:14:25.736Z,6.80
2018-02-03T03:15:25.699Z,7.20
2018-02-03T03:16:25.686Z,6.70
2018-02-03T03:17:25.659Z,6.50
2018-02-03T03:18:25.660Z,6.50
2018-02-03T03:19:25.622Z,6.90
2018-02-03T03:20:25.623Z,6.70
2018-02-03T03:21:25.589Z,6.30
2018-02-03T03:22:25.571Z,7.10
2018-02-03T03:23:25.560Z,6.60
2018-02-03T03:24:25.550Z,7.00
2018-02-03T03:25:25.531Z,6.70
2018-02-03T03:26:25.513Z,6.90
2018-02-03T03:27:25.486Z,7.40
2018-02-03T03:28:25.464Z,7.00
2018-02-03T03:29:25.442Z,6.90
2018-02-03T03:30:25.438Z,7.10
2018-02-03T03:31:25.412Z,7.00
2018-02-03T03:32:25.384Z,7.20
2018-02-03T03:33:25.365Z,7.20
2018-02-03T03:34:25.349Z,7.40
2018-02-03T03:35:25.345Z,7.90
2018-02-03T03:36:25.307Z,8.00
2018-02-03T03:37:25.289Z,8.00
2018-02-03T03:38:25.267Z,7.80
2018-02-03T03:39:25.258Z,7.70
2018-02-03T03:40:25.263Z,8.80
2018-02-03T03:41:25.214Z,8.00
2018-02-03T03:42:25.220Z,8.60
2018-02-03T03:43:25.184Z,8.20
2018-02-03T03:44:25.161Z,8.00
2018-02-03T03:45:25.136Z,8.30
2018-02-03T03:46:25.136Z,8.50
2018-02-03T03:47:25.108Z,8.70
2018-02-03T03:48:25.085Z,9.30
2018-02-03T03:49:25.069Z,9.00
2018-02-03T03:50:25.041Z,9.50
2018-02-03T03:51:25.047Z,9.20
2018-02-03T03:52:25.008Z,8.80
2018-02-03T03:53:25.048Z,8.80
2018-02-03T03:54:24.984Z,8.70
2018-02-03T03:55:24.951Z,9.30
2018-02-03T03:56:24.935Z,9.40
2018-02-03T03:57:24.927Z,8.90
2018-02-03T03:58:24.895Z,8.80
2018-02-03T03:59:24.874Z,9.40
2018-02-03T04:00:24.857Z,9.00
2018-02-03T04:01:24.841Z,9.50
2018-02-03T04:02:24.850Z,9.20
2018-02-03T04:03:24.804Z,9.10
2018-02-03T04:04:24.787Z,9.30
2018-02-03T04:05:24.769Z,9.50
2018-02-03T04:06:24.748Z,9.80
2018-02-03T04:07:24.734Z,9.40
2018-02-03T04:08:24.738Z,9.90
2018-02-03T04:09:24.713Z,9.30
2018-02-03T04:10:24.677Z,9.70
2018-02-03T04:11:24.649Z,10.00
2018-02-03T04:12:24.635Z,9.90
2018-02-03T04:13:24.619Z,10.30
2018-02-03T04:14:24.596Z,10.20
2018-02-03T04:15:45.584Z,9.70
2018-02-03T04:16:24.562Z,10.10
2018-02-03T04:17:24.542Z,10.30
2018-02-03T04:18:24.520Z,10.10
2018-02-03T04:19:24.500Z,10.00
2018-02-03T04:20:24.497Z,10.30
2018-02-03T04:21:24.465Z,10.20
2018-02-03T04:22:24.450Z,10.20
2018-02-03T04:23:24.423Z,10.20
2018-02-03T04:24:24.410Z,10.00
2018-02-03T04:25:24.406Z,10.40
2018-02-03T04:26:24.388Z,10.30
2018-02-03T04:27:24.362Z,10.90
2018-02-03T04:28:24.336Z,11.10
2018-02-03T04:29:24.316Z,10.80
2018-02-03T04:30:24.312Z,10.70
2018-02-03T04:31:24.300Z,10.70
2018-02-03T04:32:24.260Z,10.50
2018-02-03T04:33:24.244Z,10.90
2018-02-03T04:34:24.224Z,10.50
2018-02-03T04:35:24.205Z,10.30
2018-02-03T04:36:24.185Z,10.40
2018-02-03T04:37:24.184Z,10.50
2018-02-03T04:38:24.148Z,10.60
2018-02-03T04:39:24.130Z,10.00
2018-02-03T04:40:24.113Z,10.00
2018-02-03T04:41:24.094Z,9.60
2018-02-03T04:42:24.093Z,9.80
2018-02-03T04:43:24.054Z,10.30
2018-02-03T04:44:24.047Z,10.40
2018-02-03T04:45:24.075Z,10.60
2018-02-03T04:46:24.019Z,10.00
2018-02-03T04:47:23.994Z,9.60
2018-02-03T04:48:23.968Z,10.30
2018-02-03T04:49:23.943Z,9.90
2018-02-03T04:50:23.930Z,9.90
2018-02-03T04:51:23.903Z,10.00
2018-02-03T04:52:23.889Z,9.60
2018-02-03T04:54:55.894Z,10.10
2018-02-03T04:55:55.857Z,9.70
2018-02-03T04:56:55.847Z,9.70
2018-02-03T04:57:55.822Z,10.20
2018-02-03T04:58:55.798Z,9.60
2018-02-03T04:59:55.794Z,10.00
2018-02-03T05:00:55.760Z,9.40
2018-02-03T05:01:55.759Z,9.10
2018-02-03T05:02:55.724Z,9.80
2018-02-03T05:03:55.721Z,9.70
2018-02-03T05:04:55.686Z,9.60
2018-02-03T05:05:55.668Z,9.90
2018-02-03T05:06:55.647Z,9.50
2018-02-03T05:07:55.641Z,9.70
2018-02-03T05:08:55.628Z,9.40
2018-02-03T05:09:55.596Z,9.70
2018-02-03T05:10:55.618Z,9.50
2018-02-03T05:11:55.565Z,9.10
2018-02-03T05:12:55.566Z,9.00
2018-02-03T05:13:55.536Z,9.70
2018-02-03T05:14:55.509Z,9.50
2018-02-03T05:15:55.486Z,9.30
2018-02-03T05:16:55.487Z,9.00
2018-02-03T05:17:55.461Z,9.00
2018-02-03T05:18:55.428Z,8.80
2018-02-03T05:19:55.418Z,9.30
2018-02-03T05:20:55.406Z,9.20
2018-02-03T05:21:55.389Z,9.20
2018-02-03T05:22:55.352Z,9.40
2018-02-03T05:23:55.333Z,9.10
2018-02-03T05:24:55.322Z,9.10
2018-02-03T05:25:55.292Z,9.00
2018-02-03T05:26:55.278Z,8.60
2018-02-03T05:27:55.278Z,8.70
2018-02-03T05:28:55.240Z,9.00
2018-02-03T05:29:55.238Z,9.10
2018-02-03T05:30:55.220Z,9.30
2018-02-03T05:31:55.182Z,9.10
2018-02-03T05:32:55.161Z,8.20
2018-02-03T05:33:55.146Z,8.80
2018-02-03T05:34:55.130Z,8.50
2018-02-03T05:35:55.130Z,9.30
2018-02-03T05:36:55.087Z,9.60
2018-02-03T05:37:55.072Z,9.40
2018-02-03T05:38:55.054Z,9.30
2018-02-03T05:39:55.032Z,9.90
2018-02-03T05:40:55.017Z,10.30
2018-02-03T05:41:55.013Z,10.70
2018-02-03T05:42:54.977Z,10.80
2018-02-03T05:43:54.956Z,9.80
2018-02-03T05:44:54.953Z,9.10
2018-02-03T05:45:54.921Z,9.50
2018-02-03T05:46:54.897Z,9.10
2018-02-03T05:47:54.881Z,8.60
2018-02-03T05:48:54.862Z,8.40
2018-02-03T05:49:54.860Z,8.00
2018-02-03T05:50:54.843Z,8.60
2018-02-03T05:51:54.821Z,8.40
2018-02-03T05:52:54.788Z,8.10
2018-02-03T05:53:54.767Z,8.10
2018-02-03T05:54:54.766Z,8.30
2018-02-03T05:55:54.732Z,8.10
2018-02-03T05:56:54.712Z,8.80
2018-02-03T05:57:54.693Z,9.00
2018-02-03T05:58:54.669Z,9.00
2018-02-03T05:59:54.669Z,8.60
2018-02-03T06:00:54.635Z,8.20
2018-02-03T06:01:54.617Z,8.70
2018-02-03T06:03:15.613Z,9.00
2018-02-03T06:03:54.571Z,9.00
2018-02-03T06:04:54.580Z,9.80
2018-02-03T06:05:54.551Z,9.10
2018-02-03T06:06:54.519Z,10.20
2018-02-03T06:07:54.518Z,9.70
2018-02-03T06:08:54.481Z,10.30
2018-02-03T06:09:54.461Z,9.30
2018-02-03T06:10:54.442Z,10.20
2018-02-03T06:11:54.423Z,9.70
2018-02-03T06:12:54.405Z,10.10
2018-02-03T06:13:54.405Z,10.30
2018-02-03T06:14:54.366Z,10.60
2018-02-03T06:15:54.343Z,10.50
2018-02-03T06:16:54.327Z,10.60
2018-02-03T06:17:54.309Z,10.50
2018-02-03T06:18:54.305Z,10.30
2018-02-03T06:19:54.270Z,10.70
2018-02-03T06:20:54.247Z,10.00
2018-02-03T06:21:54.235Z,10.30
2018-02-03T06:22:54.208Z,10.40
2018-02-03T06:23:54.193Z,10.40
2018-02-03T06:24:54.188Z,11.00
2018-02-03T06:25:54.159Z,10.60
2018-02-03T06:26:54.130Z,10.50
2018-02-03T06:27:54.111Z,11.00
2018-02-03T06:28:54.111Z,10.40
2018-02-03T06:29:54.082Z,10.80
2018-02-03T06:30:54.059Z,11.10
2018-02-03T06:31:54.037Z,11.20
2018-02-03T06:32:54.012Z,11.10
2018-02-03T06:33:54.005Z,10.90
2018-02-03T06:34:54.146Z,11.00
2018-02-03T06:35:53.957Z,11.30
2018-02-03T06:36:53.935Z,11.00
2018-02-03T06:37:53.930Z,11.20
2018-02-03T06:38:53.915Z,11.40
2018-02-03T06:39:56.768Z,11.20
2018-02-03T06:40:53.865Z,11.40
2018-02-03T06:41:53.853Z,12.20
2018-02-03T06:42:53.823Z,11.80
2018-02-03T06:43:53.802Z,11.70
2018-02-03T06:44:53.801Z,11.80
2018-02-03T06:45:53.787Z,11.70
2018-02-03T06:46:53.752Z,11.50
2018-02-03T06:47:53.728Z,12.00
2018-02-03T06:48:53.730Z,11.80
2018-02-03T06:49:53.773Z,11.80
2018-02-03T06:50:53.680Z,11.80
2018-02-03T06:51:53.647Z,12.00
2018-02-03T06:52:53.633Z,12.40
2018-02-03T06:53:53.621Z,12.00
2018-02-03T06:54:53.588Z,12.90
2018-02-03T06:55:53.584Z,12.40
2018-02-03T06:56:53.553Z,12.30
2018-02-03T06:57:53.527Z,13.10
2018-02-03T06:58:53.532Z,13.60
2018-02-03T06:59:53.533Z,14.20
2018-02-03T07:00:53.470Z,13.60
2018-02-03T07:01:53.473Z,14.00
2018-02-03T07:02:53.432Z,14.40
2018-02-03T07:03:53.415Z,13.90
2018-02-03T07:04:53.396Z,13.90
2018-02-03T07:05:53.380Z,14.60
2018-02-03T07:06:53.358Z,14.00
2018-02-03T07:07:53.351Z,14.90
2018-02-03T07:08:53.318Z,15.30
2018-02-03T07:09:53.293Z,15.60
2018-02-03T07:10:53.278Z,16.30
2018-02-03T07:11:53.257Z,16.30
2018-02-03T07:12:53.238Z,16.30
2018-02-03T07:13:53.231Z,16.70
2018-02-03T07:14:53.193Z,16.30
2018-02-03T07:15:53.179Z,16.70
2018-02-03T07:16:53.159Z,16.10
2018-02-03T07:17:53.139Z,15.50
2018-02-03T07:18:53.130Z,15.20
2018-02-03T07:19:53.094Z,14.90
2018-02-03T07:20:53.082Z,15.10
2018-02-03T07:21:53.080Z,14.10
2018-02-03T07:22:53.043Z,14.00
2018-02-03T07:23:53.020Z,14.00
2018-02-03T07:24:53.027Z,13.60
2018-02-03T07:25:52.987Z,13.40
2018-02-03T07:26:52.968Z,13.10
2018-02-03T07:27:52.949Z,13.60
2018-02-03T07:28:52.929Z,13.40
2018-02-03T07:29:53.545Z,13.80
2018-02-03T07:30:52.901Z,15.90
2018-02-03T07:31:52.870Z,16.90
2018-02-03T07:32:52.851Z,17.20
2018-02-03T07:33:52.835Z,19.20
2018-02-03T07:34:52.818Z,23.20
2018-02-03T07:35:52.809Z,22.10
2018-02-03T07:36:52.792Z,23.10
2018-02-03T07:37:52.754Z,25.50
2018-02-03T07:38:52.755Z,26.50
2018-02-03T07:39:52.711Z,30.50
2018-02-03T07:40:52.719Z,30.70
2018-02-03T07:41:52.679Z,29.90
2018-02-03T07:42:52.660Z,29.50
2018-02-03T07:43:52.639Z,29.30
2018-02-03T07:44:52.620Z,30.10
2018-02-03T07:45:52.659Z,29.20
2018-02-03T07:46:52.583Z,27.80
2018-02-03T07:47:52.568Z,32.20
2018-02-03T07:48:52.554Z,31.70
2018-02-03T07:49:52.543Z,31.80
2018-02-03T07:50:52.520Z,30.80
2018-02-03T07:51:52.487Z,31.80
2018-02-03T07:52:52.464Z,31.70
2018-02-03T07:53:52.448Z,32.30
2018-02-03T07:54:52.430Z,33.70
2018-02-03T07:55:52.414Z,34.80
2018-02-03T07:56:52.410Z,34.60
2018-02-03T07:57:52.369Z,35.10
2018-02-03T07:58:52.352Z,34.70
2018-02-03T07:59:52.337Z,35.40
2018-02-03T08:00:52.320Z,35.50
2018-02-03T08:01:52.296Z,36.90
2018-02-03T08:02:52.289Z,37.00
2018-02-03T08:03:53.049Z,36.60
2018-02-03T08:04:52.238Z,37.60
2018-02-03T08:05:52.224Z,37.50
2018-02-03T08:06:52.209Z,38.90
2018-02-03T08:08:13.194Z,39.30
2018-02-03T08:08:52.175Z,39.60
2018-02-03T08:09:52.144Z,38.60
2018-02-03T08:10:52.127Z,39.40
2018-02-03T08:11:52.099Z,38.00
2018-02-03T08:12:52.101Z,37.90
2018-02-03T08:13:52.085Z,37.90
2018-02-03T08:14:52.061Z,36.90
2018-02-03T08:15:52.031Z,35.30
2018-02-03T08:16:52.008Z,35.10
2018-02-03T08:17:51.987Z,34.50
2018-02-03T08:18:51.971Z,36.10
2018-02-03T08:19:51.950Z,36.30
2018-02-03T08:20:51.960Z,34.10
2018-02-03T08:21:51.914Z,33.10
2018-02-03T08:22:51.896Z,32.80
2018-02-03T08:23:51.872Z,32.70
2018-02-03T08:26:43.094Z,31.40
2018-02-03T08:27:23.856Z,32.80
2018-02-03T08:28:23.839Z,31.20
2018-02-03T08:29:23.823Z,31.30
2018-02-03T08:30:23.818Z,30.00
2018-02-03T08:31:23.784Z,29.50
2018-02-03T08:32:23.766Z,29.40
2018-02-03T08:33:24.537Z,30.60
2018-02-03T08:34:23.722Z,30.90
2018-02-03T08:35:23.707Z,30.00
2018-02-03T08:36:23.706Z,30.10
2018-02-03T08:37:23.682Z,29.20
2018-02-03T08:38:23.669Z,30.20
2018-02-03T08:39:23.640Z,31.20
2018-02-03T08:40:23.615Z,30.20
2018-02-03T08:41:23.591Z,29.00
2018-02-03T08:42:23.573Z,30.90
2018-02-03T08:43:23.555Z,29.70
2018-02-03T08:44:23.550Z,32.70
2018-02-03T08:45:23.511Z,31.90
2018-02-03T08:46:23.514Z,31.70
2018-02-03T08:47:23.480Z,29.80
2018-02-03T08:48:23.460Z,29.80
2018-02-03T08:49:23.457Z,29.50
2018-02-03T08:50:23.437Z,28.40
2018-02-03T08:51:23.396Z,28.60
2018-02-03T08:52:23.382Z,27.00
2018-02-03T08:53:23.368Z,28.00
2018-02-03T08:54:23.349Z,25.30
2018-02-03T08:55:23.342Z,27.00
2018-02-03T08:56:23.324Z,26.40
2018-02-03T08:57:23.291Z,26.70
2018-02-03T08:58:23.282Z,25.60
2018-02-03T08:59:23.251Z,25.60
2018-02-03T09:00:23.230Z,25.60
2018-02-03T09:01:23.252Z,25.20
2018-02-03T09:02:23.191Z,24.90
2018-02-03T09:03:23.175Z,24.10
2018-02-03T09:04:23.156Z,24.00
2018-02-03T09:05:23.134Z,24.30
2018-02-03T09:06:23.120Z,23.90
2018-02-03T09:07:23.113Z,23.10
2018-02-03T09:08:23.081Z,22.70
2018-02-03T09:09:23.056Z,22.50
2018-02-03T09:10:23.041Z,22.50
2018-02-03T09:11:23.025Z,22.10
2018-02-03T09:12:23.022Z,22.20
2018-02-03T09:13:22.988Z,21.90
2018-02-03T09:14:22.971Z,22.30
2018-02-03T09:15:22.957Z,22.90
2018-02-03T09:16:22.931Z,22.50
2018-02-03T09:17:22.930Z,23.10
2018-02-03T09:18:22.891Z,22.80
2018-02-03T09:19:22.872Z,22.80
2018-02-03T09:20:22.857Z,21.70
2018-02-03T09:21:22.837Z,22.00
2018-02-03T09:22:22.844Z,22.40
2018-02-03T09:23:22.815Z,22.50
2018-02-03T09:24:22.785Z,23.00
2018-02-03T09:25:22.761Z,22.70
2018-02-03T09:26:22.770Z,21.60
2018-02-03T09:27:22.726Z,22.40
2018-02-03T09:28:22.727Z,23.20
2018-02-03T09:29:22.690Z,23.00
2018-02-03T09:30:22.665Z,22.80
2018-02-03T09:31:22.652Z,22.90
2018-02-03T09:32:22.644Z,22.40
2018-02-03T09:33:22.624Z,22.90
2018-02-03T09:34:22.591Z,23.30
2018-02-03T09:35:22.583Z,23.40
2018-02-03T09:36:22.558Z,23.20
2018-02-03T09:37:22.544Z,23.30
2018-02-03T09:38:22.527Z,23.70
2018-02-03T09:39:22.514Z,24.00
2018-02-03T09:40:22.498Z,25.30
2018-02-03T09:41:22.462Z,24.90
2018-02-03T09:42:22.448Z,24.40
2018-02-03T09:43:22.424Z,24.80
2018-02-03T09:44:22.424Z,25.60
2018-02-03T09:45:22.389Z,24.30
2018-02-03T09:46:22.372Z,25.20
2018-02-03T09:47:22.352Z,24.20
2018-02-03T09:48:22.334Z,24.30
2018-02-03T09:49:22.334Z,24.50
2018-02-03T09:50:22.310Z,23.00
2018-02-03T09:51:22.280Z,24.50
2018-02-03T09:52:22.276Z,24.80
2018-02-03T09:53:22.244Z,24.50
2018-02-03T09:54:22.245Z,24.20
2018-02-03T09:55:22.202Z,24.60
2018-02-03T09:56:22.186Z,24.70
2018-02-03T09:57:22.165Z,26.00
2018-02-03T09:58:22.153Z,25.50
2018-02-03T09:59:22.130Z,26.10
2018-02-03T10:00:22.132Z,23.90
2018-02-03T10:01:22.092Z,23.10
2018-02-03T10:02:22.074Z,23.40
2018-02-03T10:03:22.055Z,25.20
2018-02-03T10:04:22.040Z,26.00
2018-02-03T10:05:22.020Z,25.90
2018-02-03T10:06:22.017Z,25.10
2018-02-03T10:07:21.985Z,24.30
2018-02-03T10:08:21.963Z,24.70
2018-02-03T10:09:21.953Z,24.20
2018-02-03T10:10:21.948Z,24.50
2018-02-03T10:11:21.910Z,23.00
2018-02-03T10:12:21.903Z,24.00
2018-02-03T10:13:21.874Z,24.20
2018-02-03T10:14:21.858Z,23.80
2018-02-03T10:15:21.858Z,22.80
2018-02-03T10:16:21.822Z,24.30
2018-02-03T10:17:21.804Z,23.60
2018-02-03T10:18:21.787Z,23.70
2018-02-03T10:19:21.774Z,24.20
2018-02-03T10:20:21.751Z,24.40
2018-02-03T10:21:21.755Z,24.60
2018-02-03T10:22:21.712Z,24.30
2018-02-03T10:23:21.695Z,23.70
2018-02-03T10:24:21.680Z,24.50
2018-02-03T10:25:21.663Z,22.60
2018-02-03T10:26:21.644Z,23.60
2018-02-03T10:27:21.640Z,24.00
2018-02-03T10:28:21.616Z,23.70
2018-02-03T10:29:21.591Z,24.30
2018-02-03T10:30:21.574Z,23.40
2018-02-03T10:31:21.548Z,23.40
2018-02-03T10:32:21.551Z,23.00
2018-02-03T10:33:21.521Z,23.10
2018-02-03T10:34:21.499Z,23.60
2018-02-03T10:35:21.484Z,21.50
2018-02-03T10:36:21.473Z,22.60
2018-02-03T10:37:21.473Z,21.20
2018-02-03T10:38:21.445Z,21.60
2018-02-03T10:39:21.421Z,21.70
2018-02-03T10:40:21.396Z,22.80
2018-02-03T10:41:21.475Z,22.40
2018-02-03T10:42:21.357Z,22.00
2018-02-03T10:43:21.345Z,23.20
2018-02-03T10:44:21.337Z,22.70
2018-02-03T10:45:21.353Z,24.50
2018-02-03T10:46:21.290Z,23.90
2018-02-03T10:47:21.275Z,23.50
2018-02-03T10:48:21.255Z,22.50
2018-02-03T10:49:21.253Z,22.10
2018-02-03T10:50:21.232Z,21.00
2018-02-03T10:51:21.197Z,21.00
2018-02-03T10:52:21.193Z,21.10
2018-02-03T10:53:21.172Z,20.50
2018-02-03T10:54:21.165Z,20.20
2018-02-03T10:55:21.136Z,21.00
2018-02-03T10:56:21.120Z,20.60
2018-02-03T10:57:21.103Z,20.60
2018-02-03T10:58:21.079Z,21.10
2018-02-03T10:59:21.082Z,19.70
2018-02-03T11:00:21.048Z,21.50
2018-02-03T11:01:21.039Z,21.60
2018-02-03T11:02:21.017Z,22.30
2018-02-03T11:03:20.994Z,22.60
2018-02-03T11:04:20.996Z,23.40
2018-02-03T11:05:20.967Z,21.30
2018-02-03T11:06:20.938Z,21.90
2018-02-03T11:07:20.926Z,22.60
2018-02-03T11:08:20.911Z,20.50
2018-02-03T11:09:20.908Z,22.10
2018-02-03T11:10:20.881Z,21.80
2018-02-03T11:11:20.869Z,22.10
2018-02-03T11:12:20.841Z,21.60
2018-02-03T11:13:20.831Z,22.10
2018-02-03T11:14:20.808Z,21.40
2018-02-03T11:15:20.785Z,21.80
2018-02-03T11:16:20.786Z,22.00
2018-02-03T11:17:20.770Z,21.10
2018-02-03T11:18:20.746Z,21.20
2018-02-03T11:19:20.723Z,20.60
2018-02-03T11:20:20.704Z,19.90
2018-02-03T11:21:20.681Z,21.20
2018-02-03T11:22:20.685Z,22.10
2018-02-03T11:23:20.655Z,23.80
2018-02-03T11:24:20.632Z,22.30
2018-02-03T11:25:20.622Z,21.50
2018-02-03T11:26:20.633Z,21.30
2018-02-03T11:27:20.595Z,20.20
2018-02-03T11:28:20.565Z,21.40
2018-02-03T11:29:20.547Z,21.60
2018-02-03T11:30:20.532Z,20.90
2018-02-03T11:31:20.511Z,20.50
2018-02-03T11:32:20.517Z,20.80
2018-02-03T11:33:20.482Z,20.30
2018-02-03T11:34:20.461Z,19.40
2018-02-03T11:35:20.442Z,18.20
2018-02-03T11:36:20.431Z,18.00
2018-02-03T11:37:20.415Z,18.10
2018-02-03T11:38:20.417Z,18.00
2018-02-03T11:39:20.386Z,18.10
2018-02-03T11:40:20.359Z,18.00
2018-02-03T11:41:20.344Z,17.80
2018-02-03T11:42:20.325Z,16.90
2018-02-03T11:43:20.313Z,15.80
2018-02-03T11:44:20.322Z,16.00
2018-02-03T11:45:20.271Z,15.10
2018-02-03T11:46:20.259Z,15.00
2018-02-03T11:47:20.242Z,14.90
2018-02-03T11:48:20.226Z,14.70
2018-02-03T11:49:20.203Z,15.50
2018-02-03T11:50:20.204Z,15.10
2018-02-03T11:51:20.174Z,15.60
2018-02-03T11:52:20.160Z,15.50
2018-02-03T11:53:20.142Z,15.50
2018-02-03T11:54:20.119Z,15.50
2018-02-03T11:55:20.108Z,14.60
2018-02-03T11:56:20.102Z,15.20
2018-02-03T11:57:20.071Z,15.00
2018-02-03T11:58:20.051Z,14.70
2018-02-03T11:59:20.035Z,14.60
2018-02-03T12:00:20.031Z,14.80
2018-02-03T12:01:20.003Z,15.20
2018-02-03T12:02:19.993Z,13.70
2018-02-03T12:03:20.000Z,13.80
2018-02-03T12:04:19.949Z,14.00
2018-02-03T12:05:19.936Z,14.40
2018-02-03T12:06:19.925Z,14.00
2018-02-03T12:07:19.917Z,14.40
2018-02-03T12:08:19.879Z,13.90
2018-02-03T12:09:19.875Z,13.60
2018-02-03T12:10:19.845Z,14.40
2018-02-03T12:11:19.828Z,14.70
2018-02-03T12:12:19.824Z,13.90
2018-02-03T12:13:19.818Z,14.30
2018-02-03T12:14:19.779Z,14.40
2018-02-03T12:15:19.809Z,13.90
2018-02-03T12:16:19.754Z,12.80
2018-02-03T12:17:19.727Z,13.50
2018-02-03T12:18:19.711Z,13.10
2018-02-03T12:19:19.754Z,12.60
2018-02-03T12:20:19.674Z,12.80
2018-02-03T12:21:19.656Z,12.90
2018-02-03T12:22:19.647Z,13.10
2018-02-03T12:23:19.633Z,13.80
2018-02-03T12:24:19.607Z,13.70
2018-02-03T12:25:19.625Z,15.00
2018-02-03T12:26:19.572Z,14.30
2018-02-03T12:27:19.564Z,14.50
2018-02-03T12:28:19.558Z,14.60
2018-02-03T12:29:19.534Z,14.20
2018-02-03T12:30:19.505Z,13.00
2018-02-03T12:31:19.504Z,13.30
2018-02-03T12:32:19.472Z,13.20
2018-02-03T12:33:19.453Z,12.50
2018-02-03T12:34:19.459Z,12.80
2018-02-03T12:35:19.432Z,12.80
2018-02-03T12:36:19.435Z,12.90
2018-02-03T12:37:19.381Z,12.60
2018-02-03T12:38:19.380Z,12.70
2018-02-03T12:39:19.375Z,12.90
2018-02-03T12:40:19.337Z,13.40
2018-02-03T12:41:19.327Z,13.80
2018-02-03T12:42:19.299Z,13.70
2018-02-03T12:43:19.287Z,13.90
2018-02-03T12:44:19.295Z,13.20
2018-02-03T12:45:19.252Z,13.40
2018-02-03T12:46:19.233Z,13.70
2018-02-03T12:47:19.214Z,13.30
2018-02-03T12:48:19.198Z,13.60
2018-02-03T12:49:19.177Z,13.70
2018-02-03T12:50:19.180Z,13.20
2018-02-03T12:51:19.148Z,13.30
2018-02-03T12:52:19.127Z,12.90
2018-02-03T12:53:19.112Z,13.30
2018-02-03T12:54:19.094Z,13.10
2018-02-03T12:55:19.092Z,13.80
2018-02-03T12:56:19.059Z,12.90
2018-02-03T12:57:19.042Z,13.20
2018-02-03T12:58:19.050Z,13.30
2018-02-03T12:59:19.532Z,12.80
2018-02-03T13:00:19.003Z,13.80
2018-02-03T13:01:18.971Z,14.20
2018-02-03T13:02:18.964Z,14.40
2018-02-03T13:03:18.948Z,14.50
2018-02-03T13:04:18.922Z,14.70
2018-02-03T13:05:18.911Z,15.10
2018-02-03T13:06:18.886Z,13.50